16 Dec 2018 10:16 UTC 2018350+10:16 UTC

Overview Datums Bench Marks Data Query Site Visit Daily QC Messages Attributes

171: National Park Service - Bird Island

27° 29' 4" N   97° 19' 5" W
NPSBI
United States National Park Service United States National Park Service

Station Information

National Park Service - Bird Island
National Park Service - Bird Island
more pictures
 
Station Name:National Park Service - Bird Island
DNR ID:171
Location:27° 29' 4" N, 97° 19' 5" W

Water Level Forecasts

Latest Observations

Series Metric English Marine Observed at
Water Temperature 12.5 °C 54.5 °F 54.5 °F Dec 16 04:00 CST
00h07m ago
Salinity 15.300 psu 15.300 psu 15.300 psu Dec 16 04:00 CST
00h07m ago
pH 8.27 pH 8.27 pH 8.27 pH Dec 16 04:00 CST
00h07m ago
Turbidity 9 ntu 9 ntu 9 ntu Dec 16 04:00 CST
00h07m ago
Dissolved Oxygen 8.97 mg/L 0.000560 lb/ft3 0.000560 lb/ft3 Dec 16 04:00 CST
00h07m ago

Maps

National Park Service - Bird Island
All Stations in Area
Entire Network
 

Recent Observations

Date/Time Water
Temp (°F)
Sal (psu) pH (pH) Turb (ntu) DO (lb/ft3)
Dec 16 04:00 CST 54.5 15.300 8.27 9 0.000560
Dec 16 03:00 CST 54.3 14.000 8.30 2 0.000567
Dec 16 02:00 CST 54.7 13.300 8.31 2 0.000573
Dec 16 01:00 CST 54.7 14.000 8.29 3 0.000581
Dec 16 00:00 CST 55.0 14.200 8.30 7 0.000577
Dec 15 23:00 CST 55.6 13.900 8.33 2 0.000598
Dec 15 22:00 CST 55.6 13.900 8.31 3 0.000599
Dec 15 21:00 CST 56.1 14.100 8.32 3 0.000608
Dec 15 20:00 CST 56.8 13.800 8.36 2 0.000649
Dec 15 19:00 CST 57.2 13.200 8.36 2 0.000659
Dec 15 18:00 CST 57.0 13.700 8.32 2 0.000631
Dec 15 17:00 CST 57.2 15.000 8.32 5 0.000628
Dec 15 16:00 CST 57.0 16.700 8.31 4 0.000616
Dec 15 15:00 CST 57.4 25.500 8.30 3 0.000579
Dec 15 14:00 CST 57.0 25.600 8.31 2 0.000582
Dec 15 13:00 CST 56.1 26.000 8.30 5 0.000566
Dec 15 12:00 CST 55.2 26.100 8.28 3 0.000548
Dec 15 11:00 CST 54.5 26.100 8.29 4 0.000546
Dec 15 10:00 CST 54.0 26.100 8.29 5 0.000538
Dec 15 09:00 CST 53.4 26.100 8.27 5 0.000514
Dec 15 08:00 CST 53.2 26.000 8.24 8 0.000498
Dec 15 07:00 CST 53.1 25.800 8.24 7 0.000494
Dec 15 06:00 CST 53.6 25.800 8.24 6 0.000488
Dec 15 05:00 CST 54.0 25.800 8.25 8 0.000487
Dec 15 04:00 CST 54.1 25.800 8.26 9 0.000484

Historical Data Availability